createdAt,value
2022-09-14T00:04:12.120Z,15.70
2022-09-14T00:08:10.194Z,15.70
2022-09-14T00:12:07.388Z,15.70
2022-09-14T00:16:14.301Z,15.70
2022-09-14T00:20:11.920Z,15.80
2022-09-14T00:24:11.399Z,15.80
2022-09-14T00:28:08.370Z,15.80
2022-09-14T00:32:05.437Z,15.80
2022-09-14T00:36:11.523Z,15.80
2022-09-14T00:40:11.111Z,15.80
2022-09-14T00:44:28.363Z,15.70
2022-09-14T00:48:27.621Z,15.70
2022-09-14T00:52:31.256Z,15.80
2022-09-14T00:56:28.651Z,15.70
2022-09-14T01:00:29.626Z,15.60
2022-09-14T01:04:26.898Z,15.50
2022-09-14T01:08:41.860Z,15.50
2022-09-14T01:13:26.062Z,15.40
2022-09-14T01:17:35.314Z,15.40
2022-09-14T01:21:38.357Z,15.40
2022-09-14T01:26:08.667Z,15.30
2022-09-14T01:30:15.718Z,15.30
2022-09-14T01:34:24.727Z,15.20
2022-09-14T01:38:37.960Z,15.30
2022-09-14T01:42:37.654Z,15.30
2022-09-14T01:46:48.697Z,15.30
2022-09-14T01:50:50.839Z,15.30
2022-09-14T01:55:18.347Z,15.30
2022-09-14T01:59:22.250Z,15.30
2022-09-14T02:03:29.841Z,15.30
2022-09-14T02:07:27.531Z,15.30
2022-09-14T02:11:24.594Z,15.40
2022-09-14T02:15:23.091Z,15.40
2022-09-14T02:19:23.836Z,15.30
2022-09-14T02:23:23.274Z,15.30
2022-09-14T02:27:20.486Z,15.30
2022-09-14T02:32:13.225Z,15.30
2022-09-14T02:36:35.376Z,15.30
2022-09-14T02:40:57.053Z,15.30
2022-09-14T02:45:07.110Z,15.30
2022-09-14T02:49:17.472Z,15.30
2022-09-14T02:53:25.475Z,15.30
2022-09-14T02:57:22.476Z,15.30
2022-09-14T03:01:23.001Z,15.30
2022-09-14T03:05:20.770Z,15.40
2022-09-14T03:09:17.778Z,15.40
2022-09-14T03:13:14.712Z,15.40
2022-09-14T03:17:11.689Z,15.40
2022-09-14T03:21:16.149Z,15.40
2022-09-14T03:25:14.150Z,15.50
2022-09-14T03:29:11.114Z,15.50
2022-09-14T03:33:08.645Z,15.50
2022-09-14T03:37:06.464Z,15.50
2022-09-14T03:41:09.844Z,15.40
2022-09-14T03:45:07.511Z,15.50
2022-09-14T03:49:04.502Z,15.50
2022-09-14T03:53:01.428Z,15.50
2022-09-14T03:56:58.422Z,15.60
2022-09-14T04:00:55.370Z,15.60
2022-09-14T04:04:52.409Z,15.50
2022-09-14T04:08:49.455Z,15.50
2022-09-14T04:12:46.451Z,15.50
2022-09-14T04:16:44.756Z,15.40
2022-09-14T04:20:41.824Z,15.40
2022-09-14T04:24:38.791Z,15.40
2022-09-14T04:28:35.866Z,15.40
2022-09-14T04:32:34.483Z,15.40
2022-09-14T04:36:32.072Z,15.30
2022-09-14T04:40:29.166Z,15.40
2022-09-14T04:44:26.143Z,15.40
2022-09-14T04:48:23.249Z,15.40
2022-09-14T04:52:20.292Z,15.40
2022-09-14T04:56:19.885Z,15.40
2022-09-14T05:00:17.217Z,15.40
2022-09-14T05:04:14.246Z,15.40
2022-09-14T05:08:11.271Z,15.40
2022-09-14T05:12:08.294Z,15.40
2022-09-14T05:16:16.363Z,15.40
2022-09-14T05:20:13.456Z,15.40
2022-09-14T05:24:19.314Z,15.40
2022-09-14T05:28:16.266Z,15.40
2022-09-14T05:32:13.212Z,15.50
2022-09-14T05:36:10.689Z,15.50
2022-09-14T05:40:09.086Z,15.50
2022-09-14T05:44:06.830Z,15.50
2022-09-14T05:48:04.967Z,15.50
2022-09-14T05:52:02.179Z,15.50
2022-09-14T05:56:08.284Z,15.50
2022-09-14T06:00:06.012Z,15.50
2022-09-14T06:04:11.430Z,15.50
2022-09-14T06:08:08.451Z,15.50
2022-09-14T06:12:05.562Z,15.50
2022-09-14T06:16:09.605Z,15.50
2022-09-14T06:20:08.091Z,15.50
2022-09-14T06:24:05.106Z,15.50
2022-09-14T06:28:02.251Z,15.50
2022-09-14T06:31:59.272Z,15.60
2022-09-14T06:36:04.950Z,15.60
2022-09-14T06:40:02.409Z,15.70
2022-09-14T06:44:01.868Z,15.70
2022-09-14T06:47:59.106Z,15.70
2022-09-14T06:51:57.576Z,15.60
2022-09-14T06:55:59.567Z,15.70
2022-09-14T06:59:56.703Z,15.70
2022-09-14T07:03:54.732Z,15.70
2022-09-14T07:07:53.252Z,15.70
2022-09-14T07:11:50.264Z,15.70
2022-09-14T07:15:50.870Z,15.70
2022-09-14T07:19:47.847Z,15.70
2022-09-14T07:23:47.133Z,15.70
2022-09-14T07:27:44.126Z,15.70
2022-09-14T07:31:54.371Z,15.60
2022-09-14T07:35:53.079Z,15.60
2022-09-14T07:39:50.053Z,15.70
2022-09-14T07:43:57.003Z,15.60
2022-09-14T07:47:54.140Z,15.60
2022-09-14T07:51:53.517Z,15.60
2022-09-14T07:55:50.977Z,15.60
2022-09-14T07:59:48.220Z,15.60
2022-09-14T08:03:48.342Z,15.50
2022-09-14T08:07:45.250Z,15.60
2022-09-14T08:11:42.305Z,15.60
2022-09-14T08:15:39.809Z,15.70
2022-09-14T08:19:38.281Z,15.70
2022-09-14T08:23:36.747Z,15.80
2022-09-14T08:27:34.109Z,15.90
2022-09-14T08:31:35.616Z,16.00
2022-09-14T08:35:56.647Z,16.00
2022-09-14T08:39:51.625Z,16.10
2022-09-14T08:43:48.974Z,16.00
2022-09-14T08:47:46.127Z,16.10
2022-09-14T08:51:43.211Z,16.20
2022-09-14T08:55:53.039Z,16.20
2022-09-14T09:00:00.613Z,16.10
2022-09-14T09:04:45.521Z,16.10
2022-09-14T09:09:05.118Z,16.10
2022-09-14T09:13:06.960Z,16.20
2022-09-14T09:17:16.355Z,16.30
2022-09-14T09:21:19.309Z,16.30
2022-09-14T09:25:25.423Z,16.30
2022-09-14T09:29:22.534Z,16.40
2022-09-14T09:33:38.261Z,16.40
2022-09-14T09:37:43.884Z,16.50
2022-09-14T09:41:47.982Z,16.50
2022-09-14T09:46:07.325Z,16.60
2022-09-14T09:50:18.757Z,16.80
2022-09-14T09:54:15.701Z,16.90
2022-09-14T09:58:36.756Z,17.10
2022-09-14T10:02:33.796Z,17.10
2022-09-14T10:06:31.798Z,17.20
2022-09-14T10:10:34.914Z,17.20
2022-09-14T10:14:38.113Z,17.30
2022-09-14T10:18:35.678Z,17.30
2022-09-14T10:22:36.314Z,17.30
2022-09-14T10:26:37.639Z,17.20
2022-09-14T10:30:52.378Z,17.30
2022-09-14T10:34:51.262Z,17.30
2022-09-14T10:39:10.743Z,17.40
2022-09-14T10:43:28.690Z,17.50
2022-09-14T10:47:41.825Z,17.60
2022-09-14T10:51:54.271Z,17.60
2022-09-14T10:56:13.583Z,17.70
2022-09-14T11:00:20.710Z,18.00
2022-09-14T11:04:31.696Z,18.10
2022-09-14T11:09:16.164Z,18.20
2022-09-14T11:13:48.351Z,18.20
2022-09-14T11:18:34.688Z,18.20
2022-09-14T11:23:28.613Z,18.20
2022-09-14T11:27:48.687Z,18.30
2022-09-14T11:32:27.512Z,18.30
2022-09-14T11:36:50.602Z,18.50
2022-09-14T11:40:57.655Z,18.70
2022-09-14T11:45:06.098Z,18.70
2022-09-14T11:49:39.883Z,18.70
2022-09-14T11:53:37.423Z,18.80
2022-09-14T11:57:34.890Z,18.90
2022-09-14T12:01:33.443Z,19.00
2022-09-14T12:05:34.256Z,19.30
2022-09-14T12:09:39.162Z,20.00
2022-09-14T12:13:39.876Z,20.80
2022-09-14T12:17:40.182Z,21.30
2022-09-14T12:21:38.028Z,22.20
2022-09-14T12:25:38.978Z,22.80
2022-09-14T12:29:35.991Z,22.60
2022-09-14T12:33:33.021Z,22.60
2022-09-14T12:37:32.466Z,22.20
2022-09-14T12:41:35.365Z,21.90
2022-09-14T12:45:50.941Z,22.00
2022-09-14T12:49:48.678Z,22.10
2022-09-14T12:53:56.963Z,21.60
2022-09-14T12:58:16.344Z,21.30
2022-09-14T13:02:55.271Z,21.40
2022-09-14T13:06:54.850Z,21.20
2022-09-14T13:10:52.911Z,21.00
2022-09-14T13:14:55.855Z,21.00
2022-09-14T13:19:02.762Z,21.10
2022-09-14T13:23:00.249Z,21.60
2022-09-14T13:27:01.853Z,22.30
2022-09-14T13:31:02.030Z,23.00
2022-09-14T13:34:59.158Z,23.90
2022-09-14T13:39:01.618Z,24.50
2022-09-14T13:43:00.436Z,24.60
2022-09-14T13:47:01.804Z,25.40
2022-09-14T13:50:58.755Z,25.30
2022-09-14T13:55:20.502Z,25.20
2022-09-14T13:59:22.584Z,25.30
2022-09-14T14:03:49.095Z,25.10
2022-09-14T14:07:46.639Z,24.70
2022-09-14T14:11:53.702Z,24.80
2022-09-14T14:15:52.282Z,24.30
2022-09-14T14:19:52.504Z,24.20
2022-09-14T14:24:12.089Z,23.90
2022-09-14T14:28:28.955Z,23.20
2022-09-14T14:32:26.319Z,22.70
2022-09-14T14:36:23.305Z,22.30
2022-09-14T14:40:20.784Z,22.20
2022-09-14T14:44:26.246Z,22.00
2022-09-14T14:48:23.688Z,21.80
2022-09-14T14:52:20.622Z,21.50
2022-09-14T14:56:17.625Z,21.20
2022-09-14T15:00:19.473Z,21.10
2022-09-14T15:04:16.471Z,20.80
2022-09-14T15:08:17.128Z,20.60
2022-09-14T15:12:14.102Z,20.20
2022-09-14T15:16:11.164Z,20.00
2022-09-14T15:20:09.175Z,19.70
2022-09-14T15:24:07.031Z,19.40
2022-09-14T15:28:03.983Z,19.30
2022-09-14T15:32:01.224Z,19.20
2022-09-14T15:35:58.680Z,19.10
2022-09-14T15:39:57.945Z,19.00
2022-09-14T15:43:54.913Z,19.00
2022-09-14T15:47:51.883Z,18.80
2022-09-14T15:51:52.250Z,18.80
2022-09-14T15:55:49.189Z,18.80
2022-09-14T15:59:46.357Z,18.80
2022-09-14T16:03:43.838Z,18.60
2022-09-14T16:07:40.845Z,18.50
2022-09-14T16:11:39.085Z,18.40
2022-09-14T16:15:36.013Z,18.40
2022-09-14T16:19:33.152Z,18.30
2022-09-14T16:23:30.232Z,18.30
2022-09-14T16:27:27.413Z,18.30
2022-09-14T16:31:29.997Z,18.30
2022-09-14T16:35:27.027Z,18.30
2022-09-14T16:39:29.494Z,18.30
2022-09-14T16:43:26.683Z,18.30
2022-09-14T16:47:25.736Z,18.30
2022-09-14T16:51:25.778Z,18.20
2022-09-14T16:55:22.735Z,18.30
2022-09-14T16:59:20.753Z,18.30
2022-09-14T17:03:17.830Z,18.30
2022-09-14T17:07:15.387Z,18.20
2022-09-14T17:11:14.783Z,18.20
2022-09-14T17:15:12.357Z,18.10
2022-09-14T17:19:11.704Z,18.10
2022-09-14T17:23:08.789Z,17.90
2022-09-14T17:27:05.812Z,17.90
2022-09-14T17:31:06.306Z,17.80
2022-09-14T17:35:03.801Z,17.80
2022-09-14T17:39:05.821Z,17.70
2022-09-14T17:43:08.075Z,17.60
2022-09-14T17:47:05.488Z,17.50
2022-09-14T17:51:09.003Z,17.40
2022-09-14T17:55:06.556Z,17.30
2022-09-14T17:59:22.446Z,17.20
2022-09-14T18:03:19.936Z,17.30
2022-09-14T18:07:17.012Z,17.30
2022-09-14T18:11:17.504Z,17.30
2022-09-14T18:15:17.111Z,17.30
2022-09-14T18:19:15.555Z,17.30
2022-09-14T18:23:12.511Z,17.20
2022-09-14T18:27:09.667Z,17.20
2022-09-14T18:31:11.288Z,17.10
2022-09-14T18:35:08.912Z,17.00
2022-09-14T18:39:05.946Z,17.00
2022-09-14T18:43:03.743Z,16.90
2022-09-14T18:47:00.827Z,16.90
2022-09-14T18:51:04.884Z,16.90
2022-09-14T18:55:02.036Z,16.90
2022-09-14T18:59:02.212Z,16.90
2022-09-14T19:02:59.249Z,16.90
2022-09-14T19:06:56.222Z,16.90
2022-09-14T19:10:53.167Z,16.90
2022-09-14T19:14:50.120Z,16.90
2022-09-14T19:18:49.929Z,16.90
2022-09-14T19:22:46.901Z,16.90
2022-09-14T19:26:51.714Z,17.00
2022-09-14T19:30:50.150Z,16.90
2022-09-14T19:34:47.271Z,16.90
2022-09-14T19:38:45.509Z,16.80
2022-09-14T19:42:42.581Z,16.80
2022-09-14T19:46:40.704Z,16.80
2022-09-14T19:50:37.734Z,16.90
2022-09-14T19:54:35.078Z,16.90
2022-09-14T19:58:40.796Z,16.90
2022-09-14T20:02:37.853Z,16.90
2022-09-14T20:06:42.787Z,16.90
2022-09-14T20:10:39.926Z,16.90
2022-09-14T20:14:36.856Z,16.90
2022-09-14T20:18:34.103Z,16.90
2022-09-14T20:22:31.392Z,16.90
2022-09-14T20:26:30.135Z,16.90
2022-09-14T20:30:27.271Z,16.90
2022-09-14T20:34:25.016Z,16.90
2022-09-14T20:38:21.964Z,17.00
2022-09-14T20:42:19.048Z,16.90
2022-09-14T20:46:22.430Z,16.90
2022-09-14T20:50:19.425Z,16.90
2022-09-14T20:54:18.086Z,16.90
2022-09-14T20:58:15.068Z,16.90
2022-09-14T21:02:12.299Z,16.90
2022-09-14T21:06:14.266Z,16.90
2022-09-14T21:10:11.382Z,16.90
2022-09-14T21:14:08.802Z,17.00
2022-09-14T21:18:05.774Z,17.00
2022-09-14T21:22:02.870Z,17.10
2022-09-14T21:26:01.085Z,17.20
2022-09-14T21:29:58.406Z,17.30
2022-09-14T21:34:04.211Z,17.20
2022-09-14T21:38:01.477Z,17.10
2022-09-14T21:41:59.670Z,17.10
2022-09-14T21:45:59.811Z,17.10
2022-09-14T21:49:56.791Z,17.00
2022-09-14T21:53:57.684Z,16.90
2022-09-14T21:57:54.649Z,16.90
2022-09-14T22:01:52.214Z,16.90
2022-09-14T22:05:56.783Z,16.80
2022-09-14T22:09:53.841Z,16.80
2022-09-14T22:14:13.996Z,16.70
2022-09-14T22:18:10.965Z,16.70
2022-09-14T22:22:08.436Z,16.60
2022-09-14T22:26:10.846Z,16.60
2022-09-14T22:30:10.402Z,16.70
2022-09-14T22:34:08.749Z,16.80
2022-09-14T22:38:08.438Z,16.80
2022-09-14T22:42:05.896Z,16.80
2022-09-14T22:46:04.118Z,16.70
2022-09-14T22:50:01.104Z,16.70
2022-09-14T22:53:58.040Z,16.70
2022-09-14T22:57:54.982Z,16.70
2022-09-14T23:01:52.072Z,16.70
2022-09-14T23:05:59.089Z,16.70
2022-09-14T23:09:56.138Z,16.70
2022-09-14T23:13:54.102Z,16.60
2022-09-14T23:17:52.310Z,16.60
2022-09-14T23:21:51.368Z,16.50
2022-09-14T23:25:48.771Z,16.60
2022-09-14T23:29:45.696Z,16.60
2022-09-14T23:33:42.636Z,16.60
2022-09-14T23:37:39.585Z,16.70
2022-09-14T23:41:36.515Z,16.70
2022-09-14T23:45:34.577Z,16.70
2022-09-14T23:49:31.758Z,16.70
2022-09-14T23:53:29.118Z,16.70
2022-09-14T23:57:26.082Z,16.70
